createdAt,value
2019-01-31T00:00:37.583Z,6.77
2019-01-31T00:03:32.073Z,6.93
2019-01-31T00:06:09.540Z,8.97
2019-01-31T00:09:00.550Z,9.23
2019-01-31T00:11:58.788Z,7.43
2019-01-31T00:14:55.469Z,8.30
2019-01-31T00:17:47.118Z,8.40
2019-01-31T00:20:59.667Z,6.50
2019-01-31T00:24:00.129Z,6.77
2019-01-31T00:26:47.285Z,7.50
2019-01-31T00:29:49.292Z,7.57
2019-01-31T00:32:54.377Z,7.53
2019-01-31T00:35:54.566Z,6.80
2019-01-31T00:39:10.384Z,7.60
2019-01-31T00:42:06.426Z,7.13
2019-01-31T00:45:09.928Z,9.07
2019-01-31T00:47:53.078Z,7.50
2019-01-31T00:51:01.425Z,8.70
2019-01-31T00:53:55.132Z,7.30
2019-01-31T00:57:28.886Z,7.37
2019-01-31T01:00:41.138Z,8.70
2019-01-31T01:03:33.690Z,8.27
2019-01-31T01:06:49.054Z,7.33
2019-01-31T01:09:27.980Z,6.80
2019-01-31T01:12:17.296Z,7.20
2019-01-31T01:15:19.909Z,7.20
2019-01-31T01:17:56.217Z,6.40
2019-01-31T01:20:52.678Z,7.10
2019-01-31T01:23:48.985Z,6.40
2019-01-31T01:26:43.180Z,6.90
2019-01-31T01:29:55.729Z,6.70
2019-01-31T01:32:58.261Z,6.90
2019-01-31T01:36:15.576Z,6.43
2019-01-31T01:39:18.589Z,6.67
2019-01-31T01:42:33.829Z,6.20
2019-01-31T01:45:47.686Z,6.23
2019-01-31T01:48:47.038Z,6.20
2019-01-31T01:51:36.417Z,8.13
2019-01-31T01:54:52.121Z,7.30
2019-01-31T01:58:01.497Z,5.27
2019-01-31T02:01:12.649Z,6.23
2019-01-31T02:04:07.741Z,5.83
2019-01-31T02:06:57.365Z,6.60
2019-01-31T02:10:12.631Z,6.90
2019-01-31T02:13:49.049Z,6.43
2019-01-31T02:16:51.550Z,7.67
2019-01-31T02:19:45.116Z,6.37
2019-01-31T02:22:42.061Z,5.90
2019-01-31T02:25:14.085Z,5.50
2019-01-31T02:28:41.701Z,5.43
2019-01-31T02:31:53.008Z,5.97
2019-01-31T02:35:02.445Z,5.17
2019-01-31T02:37:43.654Z,5.60
2019-01-31T02:40:47.718Z,4.90
2019-01-31T02:43:33.345Z,4.33
2019-01-31T02:46:40.474Z,4.97
2019-01-31T02:49:46.291Z,5.63
2019-01-31T02:52:56.521Z,5.83
2019-01-31T02:55:52.488Z,5.17
2019-01-31T02:58:46.450Z,5.67
2019-01-31T03:01:51.124Z,4.67
2019-01-31T03:04:38.647Z,5.40
2019-01-31T03:07:37.777Z,5.00
2019-01-31T03:10:39.469Z,5.60
2019-01-31T03:13:24.409Z,5.67
2019-01-31T03:16:20.361Z,5.80
2019-01-31T03:18:59.655Z,6.07
2019-01-31T03:22:05.309Z,7.90
2019-01-31T03:24:42.066Z,6.07
2019-01-31T03:27:39.915Z,5.47
2019-01-31T03:31:04.285Z,5.03
2019-01-31T03:34:01.333Z,4.97
2019-01-31T03:37:12.660Z,5.03
2019-01-31T03:40:11.272Z,4.80
2019-01-31T03:43:08.211Z,5.00
2019-01-31T03:46:05.991Z,5.50
2019-01-31T03:48:46.729Z,4.70
2019-01-31T03:52:07.688Z,5.20
2019-01-31T03:55:04.980Z,5.10
2019-01-31T03:58:11.407Z,5.07
2019-01-31T04:01:22.633Z,4.93
2019-01-31T04:03:58.927Z,5.03
2019-01-31T04:06:30.535Z,5.50
2019-01-31T04:08:57.933Z,5.00
2019-01-31T04:11:25.335Z,6.17
2019-01-31T04:13:52.798Z,5.30
2019-01-31T04:16:20.253Z,5.17
2019-01-31T04:18:47.770Z,5.50
2019-01-31T04:21:15.411Z,5.00
2019-01-31T04:23:42.804Z,5.23
2019-01-31T04:26:10.214Z,4.20
2019-01-31T04:28:37.639Z,4.33
2019-01-31T04:31:05.027Z,4.63
2019-01-31T04:33:32.428Z,6.67
2019-01-31T04:35:59.875Z,5.90
2019-01-31T04:38:27.287Z,6.23
2019-01-31T04:41:14.326Z,6.67
2019-01-31T04:43:41.947Z,5.60
2019-01-31T04:46:09.343Z,5.50
2019-01-31T04:48:36.896Z,6.43
2019-01-31T04:51:04.413Z,5.53
2019-01-31T04:53:31.817Z,4.70
2019-01-31T04:56:00.070Z,6.80
2019-01-31T04:58:27.474Z,5.50
2019-01-31T05:00:54.865Z,5.10
2019-01-31T05:03:22.709Z,4.90
2019-01-31T05:05:50.095Z,5.30
2019-01-31T05:08:17.500Z,4.30
2019-01-31T05:10:45.140Z,4.80
2019-01-31T05:13:12.546Z,4.70
2019-01-31T05:15:39.848Z,4.77
2019-01-31T05:18:07.318Z,5.90
2019-01-31T05:20:34.710Z,4.93
2019-01-31T05:23:02.126Z,5.70
2019-01-31T05:25:29.823Z,5.07
2019-01-31T05:27:57.248Z,4.80
2019-01-31T05:30:24.763Z,5.37
2019-01-31T05:32:52.207Z,5.17
2019-01-31T05:35:19.629Z,5.17
2019-01-31T05:37:47.025Z,5.00
2019-01-31T05:40:14.811Z,6.93
2019-01-31T05:42:42.483Z,5.30
2019-01-31T05:45:12.488Z,6.07
2019-01-31T05:47:40.042Z,7.20
2019-01-31T05:50:10.296Z,7.57
2019-01-31T05:52:37.700Z,8.23
2019-01-31T05:55:05.618Z,7.27
2019-01-31T05:57:33.093Z,6.67
2019-01-31T06:00:00.526Z,7.97
2019-01-31T06:02:27.994Z,6.50
2019-01-31T06:04:55.423Z,7.50
2019-01-31T06:07:22.809Z,7.80
2019-01-31T06:09:50.246Z,5.23
2019-01-31T06:12:17.649Z,6.50
2019-01-31T06:14:45.066Z,6.85
2019-01-31T06:17:12.493Z,6.40
2019-01-31T06:19:39.911Z,9.20
2019-01-31T06:22:07.310Z,6.17
2019-01-31T06:24:35.563Z,5.90
2019-01-31T06:27:02.976Z,7.47
2019-01-31T06:29:30.369Z,6.30
2019-01-31T06:31:57.956Z,7.90
2019-01-31T06:34:25.436Z,7.45
2019-01-31T06:36:52.894Z,7.17
2019-01-31T06:39:20.547Z,6.45
2019-01-31T06:41:48.252Z,6.03
2019-01-31T06:44:16.699Z,6.33
2019-01-31T06:46:44.347Z,6.43
2019-01-31T06:49:11.803Z,7.57
2019-01-31T06:51:39.276Z,14.40
2019-01-31T06:54:07.815Z,11.10
2019-01-31T06:56:35.291Z,8.67
2019-01-31T06:59:02.869Z,8.70
2019-01-31T07:01:30.313Z,7.40
2019-01-31T07:03:57.807Z,8.38
2019-01-31T07:06:25.942Z,7.90
2019-01-31T07:08:53.335Z,7.27
2019-01-31T07:11:29.599Z,5.63
2019-01-31T07:13:49.983Z,6.43
2019-01-31T07:16:17.395Z,6.57
2019-01-31T07:18:44.803Z,7.10
2019-01-31T07:21:12.379Z,8.50
2019-01-31T07:23:39.796Z,7.90
2019-01-31T07:26:07.180Z,8.60
2019-01-31T07:28:34.939Z,7.10
2019-01-31T07:31:02.355Z,7.00
2019-01-31T07:33:29.776Z,5.57
2019-01-31T07:35:57.387Z,4.97
2019-01-31T07:38:24.808Z,5.30
2019-01-31T07:40:52.219Z,5.20
2019-01-31T07:43:19.659Z,5.80
2019-01-31T07:45:47.673Z,5.13
2019-01-31T07:48:15.068Z,5.00
2019-01-31T07:50:43.068Z,5.50
2019-01-31T07:53:12.832Z,6.33
2019-01-31T07:55:39.883Z,5.90
2019-01-31T07:58:07.347Z,6.10
2019-01-31T08:00:34.739Z,4.70
2019-01-31T08:03:02.142Z,5.30
2019-01-31T08:05:29.592Z,5.60
2019-01-31T08:07:57.503Z,5.07
2019-01-31T08:10:30.500Z,4.80
2019-01-31T08:12:58.049Z,5.77
2019-01-31T08:15:25.457Z,5.13
2019-01-31T08:17:54.863Z,5.23
2019-01-31T08:20:22.463Z,4.90
2019-01-31T08:22:49.884Z,5.60
2019-01-31T08:25:19.039Z,5.17
2019-01-31T08:27:46.799Z,5.43
2019-01-31T08:30:19.696Z,5.60
2019-01-31T08:32:47.107Z,4.50
2019-01-31T08:35:15.276Z,5.80
2019-01-31T08:37:42.667Z,5.00
2019-01-31T08:40:10.540Z,5.30
2019-01-31T08:42:39.577Z,5.47
2019-01-31T08:45:08.364Z,5.20
2019-01-31T08:47:35.763Z,5.37
2019-01-31T08:50:05.233Z,5.27
2019-01-31T08:52:32.630Z,5.70
2019-01-31T08:55:00.043Z,5.30
2019-01-31T08:57:27.488Z,5.43
2019-01-31T08:59:55.075Z,5.30
2019-01-31T09:02:22.477Z,5.50
2019-01-31T09:04:49.902Z,5.70
2019-01-31T09:07:17.297Z,5.30
2019-01-31T09:09:44.705Z,5.40
2019-01-31T09:12:15.311Z,5.07
2019-01-31T09:14:41.350Z,4.40
2019-01-31T09:17:08.790Z,4.47
2019-01-31T09:19:36.408Z,4.57
2019-01-31T09:22:19.628Z,5.00
2019-01-31T09:25:24.777Z,5.43
2019-01-31T09:28:15.756Z,5.47
2019-01-31T09:31:14.859Z,5.47
2019-01-31T09:34:09.303Z,5.40
2019-01-31T09:37:15.628Z,5.73
2019-01-31T09:40:17.638Z,5.53
2019-01-31T09:42:51.692Z,5.37
2019-01-31T09:46:02.780Z,5.40
2019-01-31T09:49:01.988Z,5.07
2019-01-31T09:51:58.729Z,4.53
2019-01-31T09:54:46.773Z,4.93
2019-01-31T09:57:36.465Z,5.33
2019-01-31T10:00:32.395Z,5.00
2019-01-31T10:03:49.659Z,5.57
2019-01-31T10:07:04.076Z,4.77
2019-01-31T10:10:14.269Z,4.90
2019-01-31T10:13:32.579Z,5.00
2019-01-31T10:16:42.016Z,5.37
2019-01-31T10:19:52.389Z,4.80
2019-01-31T10:23:01.668Z,4.77
2019-01-31T10:26:14.048Z,4.60
2019-01-31T10:29:29.618Z,4.73
2019-01-31T10:32:50.582Z,4.50
2019-01-31T10:36:00.951Z,4.67
2019-01-31T10:38:54.784Z,5.00
2019-01-31T10:42:13.030Z,5.07
2019-01-31T10:44:55.596Z,4.57
2019-01-31T10:47:55.876Z,5.13
2019-01-31T10:50:58.642Z,5.93
2019-01-31T10:53:46.857Z,5.07
2019-01-31T10:57:10.479Z,5.27
2019-01-31T11:00:13.235Z,5.10
2019-01-31T11:02:52.737Z,4.40
2019-01-31T11:05:34.503Z,5.13
2019-01-31T11:08:50.135Z,4.60
2019-01-31T11:11:30.727Z,4.53
2019-01-31T11:14:55.156Z,4.23
2019-01-31T11:18:28.676Z,4.17
2019-01-31T11:21:27.864Z,4.37
2019-01-31T11:24:36.951Z,4.60
2019-01-31T11:27:35.359Z,4.40
2019-01-31T11:30:32.136Z,4.77
2019-01-31T11:33:59.843Z,4.20
2019-01-31T11:36:38.187Z,4.43
2019-01-31T11:39:46.651Z,4.77
2019-01-31T11:42:55.695Z,4.40
2019-01-31T11:46:12.038Z,4.17
2019-01-31T11:49:29.780Z,4.07
2019-01-31T11:52:31.907Z,4.67
2019-01-31T11:55:37.144Z,4.40
2019-01-31T11:58:31.829Z,4.70
2019-01-31T12:00:59.223Z,4.30
2019-01-31T12:03:26.629Z,4.00
2019-01-31T12:05:54.044Z,3.77
2019-01-31T12:08:21.497Z,4.80
2019-01-31T12:10:49.191Z,5.00
2019-01-31T12:13:23.486Z,3.93
2019-01-31T12:15:46.115Z,4.30
2019-01-31T12:18:13.510Z,5.20
2019-01-31T12:20:40.952Z,4.30
2019-01-31T12:23:08.356Z,4.70
2019-01-31T12:25:35.748Z,3.77
2019-01-31T12:28:03.197Z,3.47
2019-01-31T12:30:30.589Z,3.80
2019-01-31T12:32:57.992Z,4.53
2019-01-31T12:35:25.687Z,3.80
2019-01-31T12:37:53.099Z,4.00
2019-01-31T12:40:20.585Z,3.63
2019-01-31T12:42:48.187Z,3.50
2019-01-31T12:45:17.188Z,5.10
2019-01-31T12:47:44.893Z,9.00
2019-01-31T12:50:15.915Z,4.73
2019-01-31T12:52:43.396Z,4.87
2019-01-31T12:55:10.887Z,3.23
2019-01-31T12:57:38.339Z,3.00
2019-01-31T13:00:11.508Z,2.80
2019-01-31T13:02:38.875Z,3.03
2019-01-31T13:05:07.236Z,3.20
2019-01-31T13:07:34.632Z,3.20
2019-01-31T13:10:02.024Z,3.00
2019-01-31T13:12:29.573Z,2.93
2019-01-31T13:14:56.973Z,2.70
2019-01-31T13:17:24.355Z,2.60
2019-01-31T13:19:51.836Z,2.70
2019-01-31T13:22:19.239Z,2.50
2019-01-31T13:24:46.739Z,2.20
2019-01-31T13:27:14.179Z,2.40
2019-01-31T13:29:42.675Z,3.30
2019-01-31T13:32:10.071Z,2.40
2019-01-31T13:34:37.563Z,2.50
2019-01-31T13:37:05.283Z,2.60
2019-01-31T13:39:32.684Z,3.07
2019-01-31T13:42:00.208Z,3.03
2019-01-31T13:44:27.855Z,2.20
2019-01-31T13:46:55.440Z,1.97
2019-01-31T13:49:23.366Z,2.03
2019-01-31T13:51:50.757Z,1.90
2019-01-31T13:54:18.161Z,2.20
2019-01-31T13:56:46.148Z,2.57
2019-01-31T13:59:13.615Z,2.27
2019-01-31T14:01:41.012Z,2.20
2019-01-31T14:04:08.644Z,2.10
2019-01-31T14:06:36.054Z,2.57
2019-01-31T14:09:06.676Z,2.40
2019-01-31T14:11:34.311Z,1.90
2019-01-31T14:14:08.693Z,2.50
2019-01-31T14:16:30.916Z,1.87
2019-01-31T14:18:58.348Z,3.83
2019-01-31T14:21:25.750Z,2.70
2019-01-31T14:23:53.139Z,3.00
2019-01-31T14:26:20.580Z,3.27
2019-01-31T14:28:47.998Z,5.73
2019-01-31T14:31:16.596Z,2.53
2019-01-31T14:33:44.059Z,1.70
2019-01-31T14:36:11.447Z,1.30
2019-01-31T14:38:38.851Z,1.60
2019-01-31T14:41:06.635Z,1.20
2019-01-31T14:43:34.021Z,1.47
2019-01-31T14:46:01.608Z,2.07
2019-01-31T14:48:29.403Z,1.50
2019-01-31T14:50:56.927Z,1.10
2019-01-31T14:53:24.369Z,1.13
2019-01-31T14:55:51.846Z,1.80
2019-01-31T14:58:20.078Z,2.20
2019-01-31T15:00:47.671Z,3.00
2019-01-31T15:03:15.139Z,2.60
2019-01-31T15:05:42.543Z,2.10
2019-01-31T15:08:09.941Z,2.20
2019-01-31T15:10:37.815Z,2.63
2019-01-31T15:13:05.310Z,3.60
2019-01-31T15:15:32.740Z,3.50
2019-01-31T15:18:00.308Z,4.57
2019-01-31T15:20:37.980Z,4.23
2019-01-31T15:23:22.349Z,4.27
2019-01-31T15:25:49.840Z,4.70
2019-01-31T15:28:17.238Z,4.97
2019-01-31T15:30:44.695Z,5.53
2019-01-31T15:33:13.144Z,4.43
2019-01-31T15:35:41.622Z,6.60
2019-01-31T15:38:09.376Z,6.07
2019-01-31T15:40:42.581Z,5.07
2019-01-31T15:43:10.188Z,5.53
2019-01-31T15:45:37.791Z,8.40
2019-01-31T15:48:06.216Z,7.83
2019-01-31T15:50:34.174Z,19.67
2019-01-31T15:53:01.727Z,11.73
2019-01-31T15:55:29.145Z,7.40
2019-01-31T15:57:56.777Z,6.03
2019-01-31T16:00:38.688Z,6.50
2019-01-31T16:03:07.550Z,7.80
2019-01-31T16:05:35.059Z,8.20
2019-01-31T16:08:03.030Z,6.80
2019-01-31T16:10:30.478Z,7.77
2019-01-31T16:12:57.847Z,9.50
2019-01-31T16:15:25.546Z,11.00
2019-01-31T16:17:52.938Z,8.17
2019-01-31T16:20:20.336Z,8.70
2019-01-31T16:22:47.791Z,8.03
2019-01-31T16:25:15.512Z,9.90
2019-01-31T16:27:43.287Z,7.53
2019-01-31T16:30:11.937Z,11.50
2019-01-31T16:32:39.349Z,10.03
2019-01-31T16:35:09.164Z,8.00
2019-01-31T16:37:36.587Z,6.10
2019-01-31T16:40:05.924Z,6.20
2019-01-31T16:42:33.324Z,5.67
2019-01-31T16:45:06.665Z,5.03
2019-01-31T16:47:29.992Z,4.87
2019-01-31T16:49:57.407Z,4.50
2019-01-31T16:52:24.863Z,5.50
2019-01-31T16:54:52.253Z,5.47
2019-01-31T16:57:19.659Z,4.53
2019-01-31T16:59:47.252Z,4.93
2019-01-31T17:02:14.645Z,5.53
2019-01-31T17:04:42.140Z,5.20
2019-01-31T17:07:09.476Z,5.73
2019-01-31T17:09:39.303Z,5.20
2019-01-31T17:12:06.084Z,6.47
2019-01-31T17:14:34.716Z,5.50
2019-01-31T17:17:02.123Z,7.30
2019-01-31T17:19:29.516Z,6.63
2019-01-31T17:21:57.079Z,7.23
2019-01-31T17:24:24.749Z,18.10
2019-01-31T17:26:52.350Z,20.27
2019-01-31T17:29:19.804Z,14.37
2019-01-31T17:31:47.216Z,7.70
2019-01-31T17:34:14.631Z,6.43
2019-01-31T17:36:42.051Z,5.80
2019-01-31T17:39:09.466Z,4.20
2019-01-31T17:41:36.888Z,5.60
2019-01-31T17:44:04.639Z,4.37
2019-01-31T17:46:32.043Z,5.27
2019-01-31T17:48:59.452Z,4.80
2019-01-31T17:51:27.388Z,4.80
2019-01-31T17:53:54.792Z,5.93
2019-01-31T17:56:22.213Z,8.10
2019-01-31T17:58:49.687Z,6.40
2019-01-31T18:01:17.087Z,5.53
2019-01-31T18:03:44.490Z,4.20
2019-01-31T18:06:11.967Z,4.00
2019-01-31T18:08:39.455Z,3.63
2019-01-31T18:11:06.855Z,3.63
2019-01-31T18:13:34.497Z,4.40
2019-01-31T18:16:01.897Z,4.60
2019-01-31T18:18:29.295Z,3.40
2019-01-31T18:20:56.987Z,12.17
2019-01-31T18:23:24.392Z,15.47
2019-01-31T18:25:51.927Z,10.53
2019-01-31T18:28:19.977Z,4.40
2019-01-31T18:30:47.391Z,8.37
2019-01-31T18:33:14.791Z,9.40
2019-01-31T18:35:42.577Z,7.50
2019-01-31T18:38:09.964Z,5.20
2019-01-31T18:40:37.364Z,5.07
2019-01-31T18:43:05.062Z,3.90
2019-01-31T18:45:32.494Z,3.67
2019-01-31T18:48:00.545Z,3.50
2019-01-31T18:50:30.399Z,3.43
2019-01-31T18:52:57.889Z,3.10
2019-01-31T18:55:25.796Z,4.33
2019-01-31T18:57:53.391Z,3.40
2019-01-31T19:00:26.238Z,4.40
2019-01-31T19:02:53.857Z,3.30
2019-01-31T19:05:21.913Z,3.60
2019-01-31T19:07:49.441Z,3.90
2019-01-31T19:10:16.945Z,4.00
2019-01-31T19:12:44.415Z,3.57
2019-01-31T19:15:12.507Z,3.63
2019-01-31T19:17:41.723Z,2.70
2019-01-31T19:20:16.966Z,2.90
2019-01-31T19:22:44.402Z,3.10
2019-01-31T19:25:12.411Z,3.60
2019-01-31T19:27:40.347Z,3.47
2019-01-31T19:30:13.172Z,3.67
2019-01-31T19:32:40.566Z,3.70
2019-01-31T19:35:08.993Z,3.50
2019-01-31T19:37:36.395Z,3.87
2019-01-31T19:40:05.190Z,3.67
2019-01-31T19:42:32.662Z,3.50
2019-01-31T19:45:00.092Z,2.80
2019-01-31T19:47:27.585Z,3.90
2019-01-31T19:49:55.033Z,2.80
2019-01-31T19:52:22.620Z,3.33
2019-01-31T19:54:50.148Z,3.77
2019-01-31T19:57:17.593Z,3.20
2019-01-31T19:59:44.994Z,2.37
2019-01-31T20:02:12.433Z,2.70
2019-01-31T20:04:39.879Z,2.33
2019-01-31T20:07:07.397Z,3.03
2019-01-31T20:09:35.028Z,2.70
2019-01-31T20:12:02.982Z,2.60
2019-01-31T20:14:30.377Z,2.23
2019-01-31T20:16:58.179Z,2.20
2019-01-31T20:19:25.770Z,2.50
2019-01-31T20:21:53.161Z,2.33
2019-01-31T20:24:20.556Z,2.50
2019-01-31T20:26:48.148Z,2.30
2019-01-31T20:29:16.161Z,2.40
2019-01-31T20:31:43.552Z,2.40
2019-01-31T20:34:11.154Z,2.80
2019-01-31T20:36:38.587Z,2.57
2019-01-31T20:39:08.470Z,2.50
2019-01-31T20:41:36.090Z,2.00
2019-01-31T20:44:03.807Z,2.57
2019-01-31T20:46:39.758Z,2.53
2019-01-31T20:49:00.489Z,2.60
2019-01-31T20:51:27.889Z,2.80
2019-01-31T20:53:55.292Z,2.40
2019-01-31T20:56:22.916Z,2.20
2019-01-31T20:58:50.322Z,3.60
2019-01-31T21:01:17.716Z,2.60
2019-01-31T21:03:45.614Z,2.43
2019-01-31T21:06:13.017Z,2.40
2019-01-31T21:08:40.434Z,2.00
2019-01-31T21:11:07.897Z,2.27
2019-01-31T21:13:35.432Z,2.13
2019-01-31T21:16:02.949Z,1.93
2019-01-31T21:18:30.590Z,2.23
2019-01-31T21:20:57.991Z,2.40
2019-01-31T21:23:25.415Z,2.37
2019-01-31T21:25:52.866Z,2.57
2019-01-31T21:28:21.010Z,2.40
2019-01-31T21:30:48.419Z,2.40
2019-01-31T21:33:16.494Z,2.30
2019-01-31T21:35:43.910Z,2.30
2019-01-31T21:38:11.427Z,2.60
2019-01-31T21:40:39.409Z,2.00
2019-01-31T21:43:07.012Z,2.10
2019-01-31T21:45:34.746Z,1.90
2019-01-31T21:48:02.502Z,2.37
2019-01-31T21:50:29.988Z,2.43
2019-01-31T21:52:57.465Z,2.00
2019-01-31T21:55:25.312Z,2.20
2019-01-31T21:57:52.686Z,2.10
2019-01-31T22:00:22.388Z,2.00
2019-01-31T22:02:49.880Z,2.27
2019-01-31T22:05:17.513Z,2.03
2019-01-31T22:07:45.113Z,2.20
2019-01-31T22:10:13.907Z,2.20
2019-01-31T22:12:41.308Z,2.17
2019-01-31T22:15:12.572Z,2.00
2019-01-31T22:17:40.338Z,1.90
2019-01-31T22:20:08.948Z,1.83
2019-01-31T22:22:36.350Z,2.57
2019-01-31T22:25:05.620Z,2.10
2019-01-31T22:27:33.276Z,1.80
2019-01-31T22:30:01.248Z,2.17
2019-01-31T22:32:28.798Z,1.77
2019-01-31T22:34:56.207Z,2.20
2019-01-31T22:37:25.055Z,2.07
2019-01-31T22:39:52.711Z,2.37
2019-01-31T22:42:20.107Z,1.90
2019-01-31T22:44:47.515Z,2.47
2019-01-31T22:47:25.529Z,2.20
2019-01-31T22:49:44.187Z,2.10
2019-01-31T22:52:11.813Z,1.97
2019-01-31T22:54:39.324Z,2.47
2019-01-31T22:57:06.731Z,2.33
2019-01-31T22:59:34.123Z,2.40
2019-01-31T23:02:08.084Z,2.30
2019-01-31T23:04:35.471Z,2.00
2019-01-31T23:07:03.270Z,2.00
2019-01-31T23:09:30.757Z,1.73
2019-01-31T23:11:58.166Z,1.70
2019-01-31T23:14:25.582Z,1.60
2019-01-31T23:16:53.139Z,1.80
2019-01-31T23:19:22.364Z,2.10
2019-01-31T23:21:49.756Z,1.73
2019-01-31T23:24:17.229Z,2.20
2019-01-31T23:26:44.843Z,2.40
2019-01-31T23:29:12.644Z,2.20
2019-01-31T23:31:40.107Z,1.80
2019-01-31T23:34:07.502Z,2.10
2019-01-31T23:36:35.008Z,1.80
2019-01-31T23:39:04.344Z,1.90
2019-01-31T23:41:31.744Z,2.07
2019-01-31T23:43:59.155Z,1.90
2019-01-31T23:46:26.599Z,2.23
2019-01-31T23:48:53.999Z,2.00
2019-01-31T23:51:23.211Z,1.90
2019-01-31T23:53:50.899Z,1.90
2019-01-31T23:56:18.299Z,1.70
2019-01-31T23:58:45.715Z,1.80
